Time;durP1;ratioP1;P1;durP2;ratioP2;P2;SDS_P1;SDS_P2;PMS_P1;PMS_P2;Temp;Humidity;BMP_temperature;BMP_pressure;BME280_temperature;BME280_humidity;BME280_pressure;Samples;Min_cycle;Max_cycle;Signal;HPM_P1;HPM_P2
2021/08/27 00:00:04;;;;;;;3.67;1.70;;;14.90;99.90;;;;;;5015255;28;20498;-79
2021/08/27 00:02:29;;;;;;;1.80;1.40;;;14.80;99.90;;;;;;5016381;28;20173;-79
2021/08/27 00:04:55;;;;;;;1.53;1.27;;;14.90;99.90;;;;;;5030572;28;20484;-79
2021/08/27 00:07:20;;;;;;;3.43;1.67;;;14.70;99.90;;;;;;5015530;28;20242;-79
2021/08/27 00:09:46;;;;;;;1.77;1.47;;;14.70;99.90;;;;;;5015122;28;20239;-78
2021/08/27 00:12:14;;;;;;;1.70;1.40;;;14.70;99.90;;;;;;5013808;28;20536;-79
2021/08/27 00:14:40;;;;;;;1.53;1.13;;;14.70;99.90;;;;;;5015079;28;20223;-79
2021/08/27 00:17:06;;;;;;;2.50;1.43;;;14.80;99.90;;;;;;5015434;28;20414;-78
2021/08/27 00:19:31;;;;;;;1.00;0.90;;;14.80;99.90;;;;;;5014868;28;20185;-79
2021/08/27 00:21:57;;;;;;;1.70;1.40;;;14.90;99.90;;;;;;5015051;28;20172;-79
2021/08/27 00:24:22;;;;;;;1.70;1.50;;;15.00;99.90;;;;;;5033457;28;20565;-79
2021/08/27 00:26:48;;;;;;;2.43;1.50;;;14.90;99.90;;;;;;5018452;28;20208;-78
2021/08/27 00:29:13;;;;;;;3.00;1.67;;;14.90;99.90;;;;;;5017755;28;20239;-79
2021/08/27 00:31:39;;;;;;;2.10;1.47;;;15.00;99.90;;;;;;5017036;28;20194;-79
2021/08/27 00:34:04;;;;;;;3.83;1.50;;;15.00;99.90;;;;;;5032798;28;20206;-79
2021/08/27 00:36:30;;;;;;;2.23;1.50;;;15.00;99.90;;;;;;5020292;28;20653;-79
2021/08/27 00:38:56;;;;;;;2.10;1.60;;;15.00;99.90;;;;;;5019458;28;20205;-78
2021/08/27 00:41:21;;;;;;;1.87;1.43;;;15.00;99.90;;;;;;5021684;28;20992;-79
2021/08/27 00:43:47;;;;;;;2.20;1.50;;;15.00;99.90;;;;;;5020749;28;20177;-79
2021/08/27 00:46:13;;;;;;;1.47;1.13;;;15.10;99.90;;;;;;5019473;28;20255;-78
2021/08/27 00:48:41;;;;;;;2.73;2.00;;;15.10;99.90;;;;;;5018480;28;20175;-78
2021/08/27 00:51:06;;;;;;;2.00;1.77;;;15.00;99.90;;;;;;5018436;28;20176;-78
2021/08/27 00:53:33;;;;;;;2.77;2.10;;;15.00;99.90;;;;;;5017724;28;20409;-78
2021/08/27 00:55:59;;;;;;;2.63;2.23;;;15.00;99.90;;;;;;5017724;28;20207;-78
2021/08/27 00:58:24;;;;;;;2.20;1.53;;;15.00;99.90;;;;;;5032656;28;20751;-78
2021/08/27 01:00:50;;;;;;;2.63;1.93;;;15.00;99.90;;;;;;5017946;28;20648;-78
2021/08/27 01:03:18;;;;;;;1.40;1.23;;;15.00;99.90;;;;;;5015490;28;20271;-78
2021/08/27 01:06:07;;;;;;;2.80;1.90;;;15.10;99.90;;;;;;5018482;28;20640;-79
2021/08/27 01:08:44;;;;;;;4.87;2.60;;;15.20;99.90;;;;;;5001527;28;20464;-79
2021/08/27 01:11:19;;;;;;;2.00;1.80;;;15.10;99.90;;;;;;5018228;28;20413;-79
2021/08/27 01:14:02;;;;;;;4.50;2.03;;;15.10;99.90;;;;;;5017731;28;20419;-79
2021/08/27 01:16:33;;;;;;;2.37;1.73;;;15.10;99.90;;;;;;5016240;28;20416;-78
2021/08/27 01:19:33;;;;;;;3.30;2.30;;;15.10;99.90;;;;;;5017255;28;20439;-79
2021/08/27 01:22:04;;;;;;;2.03;1.77;;;15.00;99.90;;;;;;5016822;28;20591;-79
2021/08/27 01:24:31;;;;;;;2.77;2.13;;;15.00;99.90;;;;;;5016159;28;20441;-78
2021/08/27 01:27:07;;;;;;;3.10;2.10;;;15.00;99.90;;;;;;5014913;28;20574;-79
2021/08/27 01:29:52;;;;;;;3.33;2.20;;;15.00;99.90;;;;;;5016077;28;20912;-78
2021/08/27 01:32:28;;;;;;;3.60;2.20;;;15.00;99.90;;;;;;5016816;28;20495;-78
2021/08/27 01:34:55;;;;;;;5.13;3.10;;;15.00;99.90;;;;;;5016545;28;20538;-78
2021/08/27 01:37:23;;;;;;;3.67;2.40;;;15.00;99.90;;;;;;5018195;28;20504;-79
2021/08/27 01:39:53;;;;;;;2.63;2.20;;;15.00;99.90;;;;;;5017294;28;20422;-79
2021/08/27 01:42:21;;;;;;;3.27;2.07;;;14.90;99.90;;;;;;5017172;28;20415;-79
2021/08/27 01:44:50;;;;;;;5.70;2.57;;;14.90;99.90;;;;;;5016888;28;20793;-79
2021/08/27 01:47:25;;;;;;;2.50;2.00;;;14.90;99.90;;;;;;5018034;28;20453;-79
2021/08/27 01:49:51;;;;;;;3.33;1.80;;;14.90;99.90;;;;;;5034034;28;20422;-79
2021/08/27 01:52:18;;;;;;;3.13;2.30;;;15.00;99.90;;;;;;5019166;28;20500;-79
2021/08/27 01:54:46;;;;;;;3.67;1.93;;;14.90;99.90;;;;;;5014998;28;20957;-78
2021/08/27 01:57:12;;;;;;;3.00;2.20;;;14.90;99.90;;;;;;5016731;28;20417;-78
2021/08/27 01:59:40;;;;;;;2.80;2.03;;;14.90;99.90;;;;;;5017976;28;20810;-79
2021/08/27 02:02:08;;;;;;;1.70;1.40;;;14.80;99.90;;;;;;5018808;28;20415;-79
2021/08/27 02:04:37;;;;;;;2.00;1.20;;;14.80;99.90;;;;;;5017226;28;20493;-79
2021/08/27 02:07:05;;;;;;;1.50;1.40;;;14.70;99.90;;;;;;5034329;28;20460;-79
2021/08/27 02:09:32;;;;;;;2.03;1.30;;;14.80;99.90;;;;;;5017919;28;20404;-78
2021/08/27 02:12:01;;;;;;;2.20;1.70;;;14.80;99.90;;;;;;5017963;28;20417;-79
2021/08/27 02:14:27;;;;;;;1.50;1.30;;;14.80;99.90;;;;;;5015647;28;20789;-78
2021/08/27 02:16:52;;;;;;;1.67;1.57;;;14.70;99.90;;;;;;5016703;28;20418;-78
2021/08/27 02:19:18;;;;;;;2.23;1.77;;;14.70;99.90;;;;;;5016728;28;20990;-78
2021/08/27 02:21:53;;;;;;;2.10;1.40;;;14.70;99.90;;;;;;5016039;28;20422;-79
2021/08/27 02:24:29;;;;;;;2.57;1.90;;;14.70;99.90;;;;;;5015545;28;20228;-78
2021/08/27 02:26:57;;;;;;;1.70;1.33;;;14.70;99.90;;;;;;5015802;28;20451;-78
2021/08/27 02:29:26;;;;;;;2.00;1.57;;;14.70;99.90;;;;;;5030886;28;20443;-78
2021/08/27 02:31:59;;;;;;;1.60;1.40;;;14.70;99.90;;;;;;5030839;28;20530;-78
2021/08/27 02:34:27;;;;;;;1.60;1.40;;;14.70;99.90;;;;;;5016063;28;20216;-77
2021/08/27 02:36:56;;;;;;;1.20;1.10;;;14.70;99.90;;;;;;5031314;28;20445;-78
2021/08/27 02:39:24;;;;;;;1.88;1.42;;;14.70;99.90;;;;;;5016427;28;20781;-80
2021/08/27 02:41:51;;;;;;;1.52;1.42;;;14.70;99.90;;;;;;5031283;28;20280;-78
2021/08/27 02:44:16;;;;;;;1.50;1.40;;;14.70;99.90;;;;;;5014749;28;20211;-79
2021/08/27 02:46:42;;;;;;;1.77;1.40;;;14.70;99.90;;;;;;5013999;28;20465;-79
2021/08/27 02:49:08;;;;;;;2.23;1.70;;;14.70;99.90;;;;;;5016009;28;20181;-78
2021/08/27 02:51:38;;;;;;;1.90;1.50;;;14.70;99.90;;;;;;5015777;28;20531;-79
2021/08/27 02:54:06;;;;;;;1.37;1.17;;;14.70;99.90;;;;;;5017967;28;20199;-79
2021/08/27 02:56:39;;;;;;;1.87;1.20;;;14.70;99.90;;;;;;5032334;28;20421;-78
2021/08/27 02:59:11;;;;;;;1.67;1.27;;;14.70;99.90;;;;;;5017149;28;20421;-79
2021/08/27 03:01:40;;;;;;;1.75;1.42;;;14.70;99.90;;;;;;5017055;28;20206;-79
2021/08/27 03:04:32;;;;;;;2.70;1.45;;;14.70;99.90;;;;;;5016484;28;20234;-79
2021/08/27 03:07:05;;;;;;;1.50;1.20;;;14.70;99.90;;;;;;5009450;28;20210;-79
2021/08/27 03:09:39;;;;;;;4.60;1.63;;;14.60;99.90;;;;;;5015616;28;20433;-79
2021/08/27 03:12:07;;;;;;;1.20;1.00;;;14.60;99.90;;;;;;5016610;28;20405;-79
2021/08/27 03:14:38;;;;;;;1.40;1.30;;;14.60;99.90;;;;;;5015486;28;20253;-78
2021/08/27 03:17:08;;;;;;;1.20;0.97;;;14.60;99.90;;;;;;5015114;28;20646;-78
2021/08/27 03:19:43;;;;;;;1.43;1.30;;;14.60;99.90;;;;;;5014738;28;20419;-78
2021/08/27 03:22:18;;;;;;;2.28;1.13;;;14.60;99.90;;;;;;5014709;28;20572;-78
2021/08/27 03:25:01;;;;;;;1.43;1.00;;;14.60;99.90;;;;;;5014303;28;20187;-78
2021/08/27 03:27:40;;;;;;;2.67;1.20;;;14.60;99.90;;;;;;5014273;28;20463;-78
2021/08/27 03:30:11;;;;;;;3.53;1.30;;;14.60;99.90;;;;;;5014669;28;20400;-78
2021/08/27 03:32:37;;;;;;;1.33;1.07;;;14.60;99.90;;;;;;5014830;28;20460;-78
2021/08/27 03:35:04;;;;;;;1.20;1.10;;;14.60;99.90;;;;;;5029818;28;20839;-79
2021/08/27 03:37:32;;;;;;;1.27;1.17;;;14.70;99.90;;;;;;5015142;28;20514;-79
2021/08/27 03:39:57;;;;;;;1.25;1.10;;;14.70;99.90;;;;;;5014838;28;20493;-77
2021/08/27 03:42:24;;;;;;;3.37;1.23;;;14.70;99.90;;;;;;5013524;28;20202;-78
2021/08/27 03:44:50;;;;;;;1.37;1.20;;;14.70;99.90;;;;;;5028996;28;20211;-79
2021/08/27 03:47:16;;;;;;;1.13;1.03;;;14.70;99.90;;;;;;5031280;28;20463;-78
2021/08/27 03:49:43;;;;;;;1.30;1.03;;;14.70;99.90;;;;;;5033374;28;20410;-78
2021/08/27 03:52:10;;;;;;;1.93;1.37;;;14.70;99.90;;;;;;5017605;28;20414;-79
2021/08/27 03:54:36;;;;;;;2.70;1.30;;;14.70;99.90;;;;;;5016077;28;20474;-78
2021/08/27 03:57:03;;;;;;;1.53;1.43;;;14.80;99.90;;;;;;5019893;28;20487;-78
2021/08/27 03:59:31;;;;;;;1.30;1.00;;;14.80;99.90;;;;;;5020927;28;20176;-79
2021/08/27 04:01:58;;;;;;;0.83;0.70;;;14.70;99.90;;;;;;5020436;28;20425;-78
2021/08/27 04:04:24;;;;;;;1.67;1.57;;;14.70;99.90;;;;;;5019535;28;20438;-78
2021/08/27 04:06:54;;;;;;;1.13;0.83;;;14.70;99.90;;;;;;5020267;28;20456;-78
2021/08/27 04:09:20;;;;;;;1.90;1.33;;;14.80;99.90;;;;;;5019106;28;20406;-78
2021/08/27 04:11:45;;;;;;;3.00;1.00;;;14.80;99.90;;;;;;5019533;28;20490;-79
2021/08/27 04:14:11;;;;;;;1.43;1.07;;;14.90;99.90;;;;;;5017610;28;20458;-79
2021/08/27 04:16:43;;;;;;;3.93;1.57;;;14.90;99.90;;;;;;5034686;28;20234;-78
2021/08/27 04:19:09;;;;;;;2.60;1.50;;;14.90;99.90;;;;;;5018400;28;20216;-79
2021/08/27 04:21:35;;;;;;;1.50;0.93;;;14.90;99.90;;;;;;5019532;28;20730;-79
2021/08/27 04:24:00;;;;;;;2.90;1.00;;;14.70;99.90;;;;;;5018012;28;20443;-79
2021/08/27 04:26:26;;;;;;;2.50;1.30;;;14.70;99.90;;;;;;5017119;28;20257;-78
2021/08/27 04:28:51;;;;;;;3.53;2.10;;;14.70;99.90;;;;;;5019323;28;20220;-79
2021/08/27 04:31:17;;;;;;;3.30;2.10;;;14.50;99.90;;;;;;5020068;28;20175;-79
2021/08/27 04:33:42;;;;;;;3.77;1.40;;;14.60;99.90;;;;;;5018295;28;20172;-79
2021/08/27 04:36:08;;;;;;;2.10;1.90;;;14.50;99.90;;;;;;5018672;28;20176;-78
2021/08/27 04:38:34;;;;;;;1.33;1.17;;;14.40;99.90;;;;;;5018833;28;20192;-78
2021/08/27 04:40:59;;;;;;;2.83;1.80;;;14.40;99.90;;;;;;5018722;28;20526;-78
2021/08/27 04:43:25;;;;;;;1.47;1.10;;;14.40;99.90;;;;;;5033801;28;20307;-78
2021/08/27 04:45:50;;;;;;;3.00;1.57;;;14.30;99.90;;;;;;5014082;28;20197;-78
2021/08/27 04:48:20;;;;;;;1.97;1.77;;;14.20;99.90;;;;;;5015961;28;20203;-78
2021/08/27 04:50:46;;;;;;;1.90;1.25;;;14.20;99.90;;;;;;5015249;28;20178;-78
2021/08/27 04:53:12;;;;;;;1.40;0.97;;;14.20;99.90;;;;;;5016078;28;20467;-78
2021/08/27 04:55:37;;;;;;;4.90;1.37;;;14.20;99.90;;;;;;5015626;28;21019;-77
2021/08/27 04:58:03;;;;;;;2.10;1.43;;;14.30;99.90;;;;;;5016594;28;20178;-78
2021/08/27 05:00:29;;;;;;;1.57;1.37;;;14.30;99.90;;;;;;4997031;28;20181;-78
2021/08/27 05:02:54;;;;;;;3.13;1.67;;;14.20;99.90;;;;;;5007190;28;20243;-78
2021/08/27 05:05:20;;;;;;;3.37;1.70;;;14.30;99.90;;;;;;5014971;28;20241;-79
2021/08/27 05:07:45;;;;;;;3.00;1.30;;;14.30;99.90;;;;;;5016683;28;20230;-78
2021/08/27 05:10:11;;;;;;;2.03;1.53;;;14.20;99.90;;;;;;5018593;28;20225;-78
2021/08/27 05:12:37;;;;;;;1.40;1.17;;;14.10;99.90;;;;;;5018147;28;20249;-78
2021/08/27 05:15:04;;;;;;;1.20;1.10;;;14.30;99.90;;;;;;5012159;28;20230;-78
2021/08/27 05:17:30;;;;;;;1.55;1.10;;;14.50;99.90;;;;;;5009128;28;20696;-78
2021/08/27 05:19:55;;;;;;;1.77;1.50;;;14.40;99.90;;;;;;4996046;28;20187;-78
2021/08/27 05:22:21;;;;;;;2.90;1.57;;;14.30;99.90;;;;;;5012497;28;20187;-78
2021/08/27 05:24:47;;;;;;;3.80;2.10;;;14.30;99.90;;;;;;4997747;28;20211;-78
2021/08/27 05:27:13;;;;;;;2.07;1.80;;;14.10;99.90;;;;;;5014479;28;21386;-77
2021/08/27 05:29:38;;;;;;;2.00;1.67;;;14.00;99.90;;;;;;5014769;28;20225;-78
2021/08/27 05:32:05;;;;;;;2.47;1.63;;;14.00;99.90;;;;;;5013803;28;20178;-78
2021/08/27 05:34:30;;;;;;;2.53;1.70;;;14.00;99.90;;;;;;5016367;28;20201;-78
2021/08/27 05:36:56;;;;;;;2.03;1.30;;;13.90;99.90;;;;;;5014286;28;20182;-78
2021/08/27 05:39:21;;;;;;;1.70;1.30;;;13.90;99.90;;;;;;4995459;28;20183;-79
2021/08/27 05:41:47;;;;;;;2.10;1.90;;;13.80;99.90;;;;;;5016360;28;20232;-79
2021/08/27 05:44:12;;;;;;;2.30;1.20;;;13.90;99.90;;;;;;5016243;28;20229;-79
2021/08/27 05:46:40;;;;;;;1.20;1.10;;;14.00;99.90;;;;;;5007201;28;20225;-78
2021/08/27 05:49:07;;;;;;;1.20;1.00;;;14.00;99.90;;;;;;5010861;28;20228;-78
2021/08/27 05:51:32;;;;;;;1.10;1.00;;;13.90;99.90;;;;;;5014715;28;20637;-77
2021/08/27 05:53:58;;;;;;;1.20;1.10;;;13.90;99.90;;;;;;5014420;28;20197;-78
2021/08/27 05:56:24;;;;;;;1.70;1.23;;;13.80;99.90;;;;;;5011954;28;20182;-77
2021/08/27 05:58:50;;;;;;;2.30;1.63;;;13.70;99.90;;;;;;4992967;28;20182;-78
2021/08/27 06:01:15;;;;;;;2.20;1.37;;;13.70;99.90;;;;;;5009889;28;20693;-77
2021/08/27 06:03:41;;;;;;;1.87;1.43;;;13.90;99.90;;;;;;5013670;28;20174;-78
2021/08/27 06:06:06;;;;;;;1.83;1.07;;;13.90;99.90;;;;;;5015092;28;20194;-78
2021/08/27 06:08:34;;;;;;;1.13;0.90;;;13.90;99.90;;;;;;5014524;28;20202;-78
2021/08/27 06:11:00;;;;;;;2.50;1.70;;;14.10;99.90;;;;;;5014519;28;20178;-79
2021/08/27 06:13:25;;;;;;;1.90;1.30;;;14.00;99.90;;;;;;5014688;28;20185;-79
2021/08/27 06:15:51;;;;;;;2.70;1.40;;;14.00;99.90;;;;;;5013680;28;20198;-77
2021/08/27 06:18:16;;;;;;;6.27;1.50;;;14.20;99.90;;;;;;5014754;28;20179;-78
2021/08/27 06:20:50;;;;;;;1.70;1.60;;;14.20;99.90;;;;;;5017311;28;20228;-78
2021/08/27 06:23:16;;;;;;;1.73;1.42;;;14.00;99.90;;;;;;5015834;28;20178;-78
2021/08/27 06:25:42;;;;;;;1.90;1.40;;;14.00;99.90;;;;;;5015117;28;20208;-78
2021/08/27 06:28:11;;;;;;;1.13;1.00;;;14.10;99.90;;;;;;5012759;28;20460;-78
2021/08/27 06:30:37;;;;;;;1.20;1.10;;;14.00;99.90;;;;;;5015993;28;20574;-79
2021/08/27 06:33:02;;;;;;;1.80;1.10;;;13.90;99.90;;;;;;5015288;28;20200;-78
2021/08/27 06:35:30;;;;;;;1.33;1.23;;;13.90;99.90;;;;;;5012664;28;20198;-77
2021/08/27 06:40:41;;;;;;;1.45;1.25;;;13.80;99.90;;;;;;5014662;28;20219;-79
2021/08/27 06:43:06;;;;;;;1.40;1.20;;;13.80;99.90;;;;;;5014851;28;20183;-77
2021/08/27 06:45:32;;;;;;;2.50;1.60;;;13.90;99.90;;;;;;5012824;28;20201;-77
2021/08/27 06:47:58;;;;;;;1.67;1.50;;;14.20;99.90;;;;;;5012788;28;20569;-77
2021/08/27 06:50:24;;;;;;;2.13;1.80;;;14.70;99.90;;;;;;5012911;28;20179;-77
2021/08/27 06:52:51;;;;;;;1.73;1.38;;;15.10;99.90;;;;;;5012116;28;20253;-76
2021/08/27 06:55:17;;;;;;;2.00;1.50;;;15.40;99.90;;;;;;5010895;28;20204;-78
2021/08/27 06:57:43;;;;;;;1.80;1.67;;;15.80;99.90;;;;;;5012381;28;20429;-77
2021/08/27 07:00:09;;;;;;;3.80;0.93;;;16.30;99.90;;;;;;5012330;28;20188;-75
2021/08/27 07:02:35;;;;;;;1.73;1.00;;;16.60;99.90;;;;;;5012978;28;20173;-76
2021/08/27 07:05:00;;;;;;;1.03;0.73;;;16.80;99.90;;;;;;5010679;28;20448;-77
2021/08/27 07:07:26;;;;;;;1.53;1.03;;;17.10;99.90;;;;;;5011136;28;20204;-76
2021/08/27 07:09:51;;;;;;;1.40;1.30;;;16.90;99.90;;;;;;5004263;28;20213;-77
2021/08/27 07:12:17;;;;;;;1.73;0.80;;;16.80;99.90;;;;;;5023523;28;20185;-77
2021/08/27 07:14:50;;;;;;;2.20;1.10;;;16.80;99.90;;;;;;5029968;28;20271;-77
2021/08/27 07:17:15;;;;;;;2.07;1.70;;;17.00;99.90;;;;;;5028666;28;20185;-77
2021/08/27 07:19:41;;;;;;;1.30;1.10;;;17.50;99.90;;;;;;5030673;28;20517;-77
2021/08/27 07:22:07;;;;;;;1.47;1.23;;;17.80;99.90;;;;;;5032425;28;20232;-76
2021/08/27 07:24:32;;;;;;;1.30;1.10;;;17.60;99.90;;;;;;5031682;28;20204;-77
2021/08/27 07:26:57;;;;;;;1.20;1.00;;;17.80;99.90;;;;;;5032826;28;20317;-77
2021/08/27 07:29:23;;;;;;;2.40;1.00;;;17.90;99.90;;;;;;5030013;28;20208;-77
2021/08/27 07:31:49;;;;;;;1.00;0.83;;;18.10;99.90;;;;;;5014413;28;20192;-77
2021/08/27 07:34:14;;;;;;;2.80;2.03;;;17.80;99.90;;;;;;5010614;28;20213;-77
2021/08/27 07:36:41;;;;;;;1.67;1.20;;;17.90;99.90;;;;;;5005174;28;20216;-77
2021/08/27 07:39:06;;;;;;;2.07;1.47;;;17.60;99.90;;;;;;4992285;28;20170;-77
2021/08/27 07:41:32;;;;;;;2.73;1.73;;;17.40;99.90;;;;;;4991482;28;20509;-77
2021/08/27 07:43:58;;;;;;;1.73;1.37;;;17.30;99.90;;;;;;4992365;28;20197;-77
2021/08/27 07:46:24;;;;;;;1.13;0.93;;;17.10;99.90;;;;;;4992616;28;20267;-76
2021/08/27 07:48:50;;;;;;;1.20;0.90;;;17.20;99.90;;;;;;4992773;28;20616;-77
2021/08/27 07:51:18;;;;;;;1.33;1.00;;;17.50;99.90;;;;;;4991836;28;20173;-77
2021/08/27 07:53:44;;;;;;;1.20;0.73;;;17.50;99.90;;;;;;4992059;28;20644;-77
2021/08/27 07:56:12;;;;;;;1.10;0.87;;;17.50;99.90;;;;;;4991168;28;20418;-77
2021/08/27 07:58:38;;;;;;;2.00;1.00;;;17.80;99.90;;;;;;4992769;28;20708;-77
2021/08/27 08:01:04;;;;;;;1.00;0.73;;;17.30;99.90;;;;;;4990341;28;20429;-77
2021/08/27 08:03:32;;;;;;;1.10;0.93;;;17.60;99.90;;;;;;4998897;28;20244;-77
2021/08/27 08:05:57;;;;;;;1.57;0.87;;;17.40;99.90;;;;;;5030229;28;20212;-77
2021/08/27 08:08:23;;;;;;;3.30;0.73;;;17.20;99.90;;;;;;5023583;28;20471;-77
2021/08/27 08:10:51;;;;;;;1.30;0.97;;;16.60;99.90;;;;;;5011002;28;20601;-78
2021/08/27 08:13:16;;;;;;;2.70;0.97;;;16.20;99.90;;;;;;5010857;28;20172;-76
2021/08/27 08:15:42;;;;;;;1.07;0.90;;;16.20;99.90;;;;;;5010888;28;20449;-76
2021/08/27 08:18:08;;;;;;;1.20;0.80;;;16.10;99.90;;;;;;5011951;28;20268;-76
2021/08/27 08:20:33;;;;;;;1.77;0.70;;;16.10;99.90;;;;;;5010537;28;20242;-76
2021/08/27 08:22:59;;;;;;;1.10;1.00;;;16.20;99.90;;;;;;4978323;28;20199;-76
2021/08/27 08:25:25;;;;;;;2.23;1.00;;;16.20;99.90;;;;;;4993993;28;20740;-76
2021/08/27 08:27:50;;;;;;;2.70;1.40;;;16.10;99.90;;;;;;5006403;28;20453;-77
2021/08/27 08:30:16;;;;;;;1.20;0.80;;;16.10;99.90;;;;;;4991750;28;20182;-77
2021/08/27 08:32:42;;;;;;;1.43;0.90;;;16.00;99.90;;;;;;5003638;28;20182;-76
2021/08/27 08:35:08;;;;;;;1.00;0.77;;;16.20;99.90;;;;;;5013048;28;20436;-77
2021/08/27 08:37:37;;;;;;;1.23;0.67;;;16.10;99.90;;;;;;5011638;28;20178;-76
2021/08/27 08:40:03;;;;;;;1.60;1.30;;;16.10;99.90;;;;;;5011761;28;20416;-76
2021/08/27 08:42:29;;;;;;;1.00;0.70;;;16.30;99.90;;;;;;5011249;28;20417;-76
2021/08/27 08:44:55;;;;;;;1.30;0.70;;;16.30;99.90;;;;;;5010610;28;20511;-75
2021/08/27 08:47:21;;;;;;;1.00;0.70;;;16.40;99.90;;;;;;4995964;28;20543;-76
2021/08/27 08:49:48;;;;;;;1.00;0.70;;;16.50;99.90;;;;;;5004856;28;20182;-77
2021/08/27 08:52:22;;;;;;;1.00;0.80;;;16.80;99.90;;;;;;5013756;28;20518;-76
2021/08/27 08:54:50;;;;;;;1.20;0.80;;;16.90;99.90;;;;;;5005518;28;20448;-76
2021/08/27 08:57:15;;;;;;;1.10;0.70;;;16.90;99.90;;;;;;5001402;28;20509;-76
2021/08/27 08:59:42;;;;;;;1.00;0.60;;;16.90;99.90;;;;;;5007850;28;20594;-77
2021/08/27 09:02:09;;;;;;;1.57;1.10;;;16.50;99.90;;;;;;5004062;28;20219;-76
2021/08/27 09:04:35;;;;;;;0.90;0.60;;;16.60;99.90;;;;;;5020628;28;20517;-76
2021/08/27 09:07:00;;;;;;;1.10;0.50;;;16.70;99.90;;;;;;5034948;28;20934;-77
2021/08/27 09:09:33;;;;;;;1.37;0.77;;;16.90;99.90;;;;;;5019836;28;20421;-77
2021/08/27 09:11:59;;;;;;;1.00;0.57;;;16.80;99.90;;;;;;5014940;28;20174;-77
2021/08/27 09:14:29;;;;;;;0.90;0.60;;;16.50;99.90;;;;;;5008523;28;20461;-76
2021/08/27 09:17:05;;;;;;;0.90;0.60;;;16.40;99.90;;;;;;4995373;28;20500;-76
2021/08/27 09:19:54;;;;;;;1.17;0.60;;;16.40;99.90;;;;;;5009705;28;20929;-76
2021/08/27 09:22:20;;;;;;;0.80;0.50;;;16.50;99.90;;;;;;5006547;28;20425;-77
2021/08/27 09:25:07;;;;;;;0.90;0.60;;;16.60;99.90;;;;;;5012616;28;21001;-77
2021/08/27 09:27:35;;;;;;;1.43;0.70;;;16.80;99.90;;;;;;5013640;28;20448;-77
2021/08/27 09:30:08;;;;;;;1.00;0.87;;;17.10;99.90;;;;;;5013561;28;20471;-76
2021/08/27 09:32:33;;;;;;;0.90;0.60;;;17.00;99.90;;;;;;5010405;28;20894;-76
2021/08/27 09:35:15;;;;;;;1.00;0.60;;;17.30;99.90;;;;;;5008157;28;20583;-77
2021/08/27 09:37:46;;;;;;;1.07;0.67;;;17.30;99.90;;;;;;5009077;28;20658;-77
2021/08/27 09:40:18;;;;;;;1.20;0.70;;;17.20;99.90;;;;;;5014414;28;20516;-77
2021/08/27 09:42:49;;;;;;;0.83;0.50;;;17.30;99.90;;;;;;5013886;28;20734;-76
2021/08/27 09:45:16;;;;;;;0.90;0.63;;;17.40;99.90;;;;;;5013208;28;21136;-76
2021/08/27 09:48:13;;;;;;;1.00;0.70;;;17.50;99.90;;;;;;5012702;28;20457;-78
2021/08/27 09:50:44;;;;;;;1.20;0.90;;;17.20;99.90;;;;;;5001865;28;20507;-77
2021/08/27 09:53:13;;;;;;;0.90;0.80;;;17.00;99.90;;;;;;5012312;28;20430;-76
2021/08/27 09:55:56;;;;;;;1.07;0.80;;;16.90;99.90;;;;;;5012459;28;20442;-76
2021/08/27 09:58:22;;;;;;;0.83;0.57;;;17.00;99.90;;;;;;5014354;28;20439;-77
2021/08/27 10:01:03;;;;;;;1.10;0.80;;;17.10;99.90;;;;;;5013977;28;20948;-77
2021/08/27 10:03:29;;;;;;;1.00;0.70;;;17.10;99.90;;;;;;5013200;28;20457;-76
2021/08/27 10:05:55;;;;;;;2.50;0.70;;;17.00;99.90;;;;;;5029181;28;20819;-75
2021/08/27 10:08:23;;;;;;;1.00;0.70;;;17.00;99.90;;;;;;5013396;28;20272;-77
2021/08/27 10:10:54;;;;;;;1.20;0.80;;;17.00;99.90;;;;;;5013241;28;20174;-77
2021/08/27 10:13:22;;;;;;;1.10;0.70;;;17.30;99.90;;;;;;5011591;28;20444;-77
2021/08/27 10:15:51;;;;;;;2.60;0.70;;;17.30;99.90;;;;;;5012154;28;20467;-78
2021/08/27 10:18:20;;;;;;;1.17;0.80;;;17.50;99.90;;;;;;5012398;28;20524;-78
2021/08/27 10:20:46;;;;;;;1.23;0.70;;;17.60;99.90;;;;;;5013348;28;20424;-77
2021/08/27 10:23:18;;;;;;;1.47;0.90;;;17.50;99.90;;;;;;5012320;28;20461;-77
2021/08/27 10:25:44;;;;;;;1.00;0.70;;;17.60;99.90;;;;;;5012924;28;20518;-77
2021/08/27 10:28:11;;;;;;;0.90;0.60;;;17.40;99.90;;;;;;5013619;28;20710;-80
2021/08/27 10:30:57;;;;;;;1.37;1.00;;;17.00;99.90;;;;;;5014247;28;20424;-78
2021/08/27 10:33:46;;;;;;;1.10;0.90;;;16.90;99.90;;;;;;5013810;28;20427;-77
2021/08/27 10:36:20;;;;;;;1.57;0.90;;;16.70;99.90;;;;;;5005614;28;20456;-76
2021/08/27 10:38:49;;;;;;;2.03;1.23;;;16.50;99.90;;;;;;5012675;28;20894;-77
2021/08/27 10:41:17;;;;;;;5.10;1.27;;;16.30;99.90;;;;;;5012189;28;20417;-77
2021/08/27 10:44:01;;;;;;;2.47;1.20;;;16.00;99.90;;;;;;5012894;28;20425;-78
2021/08/27 10:46:47;;;;;;;10.13;2.03;;;15.90;99.90;;;;;;5013209;28;20412;-77
2021/08/27 10:49:40;;;;;;;2.20;1.33;;;15.90;99.90;;;;;;4993523;28;20417;-77
2021/08/27 10:52:27;;;;;;;3.90;1.30;;;15.80;99.90;;;;;;4997559;28;20416;-77
2021/08/27 10:55:02;;;;;;;2.07;1.60;;;15.80;99.90;;;;;;5015468;28;20471;-78
2021/08/27 10:57:28;;;;;;;1.33;1.17;;;15.70;99.90;;;;;;5013524;28;20416;-78
2021/08/27 10:59:59;;;;;;;1.43;0.93;;;15.80;99.90;;;;;;5012705;28;20512;-77
2021/08/27 11:02:25;;;;;;;1.50;1.20;;;15.80;99.90;;;;;;5013361;28;20192;-78
2021/08/27 11:04:51;;;;;;;1.30;0.90;;;15.80;99.90;;;;;;5013135;28;20440;-78
2021/08/27 11:07:19;;;;;;;1.10;1.00;;;15.80;99.90;;;;;;5012583;28;20534;-78
2021/08/27 11:10:02;;;;;;;1.43;1.10;;;15.80;99.90;;;;;;5013134;28;20531;-77
2021/08/27 11:12:34;;;;;;;2.00;1.20;;;15.80;99.90;;;;;;5013644;28;20429;-77
2021/08/27 11:15:30;;;;;;;1.30;0.90;;;16.00;99.90;;;;;;5012665;28;20883;-76
2021/08/27 11:18:15;;;;;;;1.20;0.77;;;16.20;99.90;;;;;;5011344;28;20422;-77
2021/08/27 11:20:41;;;;;;;1.50;1.00;;;16.40;99.90;;;;;;5015037;28;20432;-76
2021/08/27 11:23:07;;;;;;;1.20;0.70;;;16.40;99.90;;;;;;5011514;28;20425;-77
2021/08/27 11:25:33;;;;;;;1.57;0.90;;;16.40;99.90;;;;;;5010952;28;20455;-76
2021/08/27 11:28:11;;;;;;;2.17;0.80;;;16.50;99.90;;;;;;5011462;28;20979;-77
2021/08/27 11:30:42;;;;;;;1.73;0.90;;;16.60;99.90;;;;;;5010891;28;20432;-76
2021/08/27 11:33:45;;;;;;;1.43;0.80;;;16.90;99.90;;;;;;5010970;28;20448;-76
2021/08/27 11:36:12;;;;;;;1.47;1.17;;;16.90;99.90;;;;;;5009134;28;20425;-76
2021/08/27 11:38:38;;;;;;;1.67;1.47;;;16.80;99.90;;;;;;5012571;28;20486;-77
2021/08/27 11:41:05;;;;;;;1.00;0.80;;;16.60;99.90;;;;;;5012114;28;20443;-77
2021/08/27 11:43:35;;;;;;;1.10;0.70;;;16.20;99.90;;;;;;5012570;28;20464;-77
2021/08/27 11:46:03;;;;;;;1.47;0.83;;;16.00;99.90;;;;;;5013544;28;20424;-77
2021/08/27 11:48:38;;;;;;;1.77;0.70;;;15.90;99.90;;;;;;5012136;28;20551;-77
2021/08/27 11:51:08;;;;;;;1.27;0.70;;;15.70;99.90;;;;;;5013405;28;20508;-77
2021/08/27 11:53:34;;;;;;;3.03;1.20;;;15.60;99.90;;;;;;5007364;28;20428;-77
2021/08/27 11:55:59;;;;;;;1.10;0.80;;;15.50;99.90;;;;;;5004766;28;20776;-78
2021/08/27 11:58:41;;;;;;;1.10;1.00;;;15.50;99.90;;;;;;5013369;28;20546;-78
2021/08/27 12:01:06;;;;;;;1.00;0.70;;;15.50;99.90;;;;;;5008905;28;20182;-79
2021/08/27 12:03:32;;;;;;;1.60;1.10;;;15.50;99.90;;;;;;5015359;28;20530;-77
2021/08/27 12:05:57;;;;;;;1.17;0.77;;;15.40;99.90;;;;;;5015771;28;20251;-77
2021/08/27 12:08:27;;;;;;;1.27;0.80;;;15.40;99.90;;;;;;5012153;28;20639;-77
2021/08/27 12:10:52;;;;;;;2.10;1.30;;;15.40;99.90;;;;;;5010297;28;20196;-78
2021/08/27 12:13:18;;;;;;;0.90;0.63;;;15.50;99.90;;;;;;5014546;28;20428;-78
2021/08/27 12:15:45;;;;;;;1.40;0.80;;;15.50;99.90;;;;;;4996562;28;20205;-78
2021/08/27 12:18:13;;;;;;;1.10;0.70;;;15.60;99.90;;;;;;5013459;28;20181;-77
2021/08/27 12:20:47;;;;;;;2.13;0.80;;;15.60;99.90;;;;;;5015869;28;20432;-77
2021/08/27 12:23:18;;;;;;;0.90;0.70;;;15.60;99.90;;;;;;5016918;28;20428;-76
2021/08/27 12:26:02;;;;;;;0.90;0.70;;;15.60;99.90;;;;;;5014719;28;20456;-77
2021/08/27 12:28:39;;;;;;;1.20;0.90;;;15.80;99.90;;;;;;5015678;28;20471;-78
2021/08/27 12:31:06;;;;;;;1.50;0.97;;;16.00;99.90;;;;;;5019617;28;20535;-78
2021/08/27 12:33:36;;;;;;;1.00;0.80;;;16.30;99.90;;;;;;5016272;28;20508;-78
2021/08/27 12:36:02;;;;;;;1.30;1.10;;;16.60;99.90;;;;;;5018741;28;20421;-78
2021/08/27 12:38:28;;;;;;;1.03;0.90;;;16.80;99.90;;;;;;5016829;28;20428;-79
2021/08/27 12:40:54;;;;;;;1.50;1.20;;;16.90;99.90;;;;;;5000491;28;20781;-77
2021/08/27 12:43:24;;;;;;;1.90;1.30;;;16.80;99.90;;;;;;5015218;28;20426;-78
2021/08/27 12:45:52;;;;;;;1.57;1.20;;;16.30;99.90;;;;;;5018071;28;20198;-79
2021/08/27 12:48:20;;;;;;;1.30;0.90;;;16.00;99.90;;;;;;5017455;28;20467;-79
2021/08/27 12:51:03;;;;;;;1.00;0.80;;;15.90;99.90;;;;;;5017427;28;20413;-79
2021/08/27 12:53:32;;;;;;;1.80;1.37;;;15.40;99.90;;;;;;4998326;28;20408;-79
2021/08/27 12:56:16;;;;;;;1.70;1.40;;;15.00;99.90;;;;;;5003492;28;20536;-78
2021/08/27 12:58:49;;;;;;;2.08;1.30;;;15.10;99.90;;;;;;4997565;28;20472;-78